Time;durP1;ratioP1;P1;durP2;ratioP2;P2;SDS_P1;SDS_P2;PMS_P1;PMS_P2;Temp;Humidity;BMP_temperature;BMP_pressure;BME280_temperature;BME280_humidity;BME280_pressure;Samples;Min_cycle;Max_cycle;Signal;HPM_P1;HPM_P2
2024/04/06 00:02:06;;;;;;;5.30;3.53;;;;;;;;;;5065833;28;25117;-64
2024/04/06 00:04:34;;;;;;;7.75;3.78;;;;;;;;;;5062249;28;25047;-63
2024/04/06 00:07:00;;;;;;;5.95;3.80;;;;;;;;;;5068134;28;25081;-66
2024/04/06 00:09:26;;;;;;;8.23;4.00;;;;;;;;;;5062307;28;25220;-62
2024/04/06 00:11:55;;;;;;;4.72;3.85;;;;;;;;;;5065011;28;25066;-63
2024/04/06 00:14:21;;;;;;;10.15;4.05;;;;;;;;;;5067429;28;25123;-63
2024/04/06 00:16:47;;;;;;;6.40;3.72;;;;;;;;;;5064867;28;25090;-63
2024/04/06 00:19:13;;;;;;;10.07;3.65;;;;;;;;;;5061496;28;25084;-65
2024/04/06 00:21:39;;;;;;;8.60;3.65;;;;;;;;;;5051187;28;25065;-64
2024/04/06 00:24:05;;;;;;;6.07;3.75;;;;;;;;;;5070004;28;25074;-65
2024/04/06 00:26:31;;;;;;;9.05;4.10;;;;;;;;;;5061288;28;25106;-64
2024/04/06 00:28:57;;;;;;;7.75;3.47;;;;;;;;;;5062881;28;25097;-63
2024/04/06 00:31:25;;;;;;;11.65;4.60;;;;;;;;;;5067151;28;25054;-63
2024/04/06 00:33:51;;;;;;;8.50;4.53;;;;;;;;;;5069189;28;25152;-64
2024/04/06 00:36:17;;;;;;;5.72;4.03;;;;;;;;;;5066704;28;25077;-65
2024/04/06 00:38:43;;;;;;;9.30;4.03;;;;;;;;;;5064594;28;25071;-64
2024/04/06 00:41:10;;;;;;;13.60;5.22;;;;;;;;;;5061213;28;25069;-64
2024/04/06 00:43:37;;;;;;;12.43;4.25;;;;;;;;;;5062169;28;25152;-64
2024/04/06 00:46:03;;;;;;;9.65;4.32;;;;;;;;;;5064469;28;25078;-63
2024/04/06 00:48:29;;;;;;;10.88;4.70;;;;;;;;;;5062574;28;25071;-64
2024/04/06 00:50:58;;;;;;;9.50;4.53;;;;;;;;;;5064555;28;25076;-65
2024/04/06 00:53:24;;;;;;;8.80;4.35;;;;;;;;;;5062109;28;25148;-64
2024/04/06 00:55:50;;;;;;;7.65;4.32;;;;;;;;;;5060253;28;25095;-66
2024/04/06 00:58:17;;;;;;;9.30;4.57;;;;;;;;;;5065484;28;25124;-64
2024/04/06 01:00:43;;;;;;;9.65;3.88;;;;;;;;;;5059838;28;25076;-64
2024/04/06 01:03:09;;;;;;;9.98;4.57;;;;;;;;;;5066640;28;25119;-64
2024/04/06 01:05:35;;;;;;;7.22;4.32;;;;;;;;;;5062051;28;25076;-63
2024/04/06 01:08:01;;;;;;;9.23;3.80;;;;;;;;;;5057827;28;25097;-62
2024/04/06 01:10:27;;;;;;;9.75;4.70;;;;;;;;;;5062410;28;25064;-64
2024/04/06 01:12:56;;;;;;;11.35;4.75;;;;;;;;;;5071397;28;25035;-64
2024/04/06 01:15:23;;;;;;;8.02;4.10;;;;;;;;;;5064655;28;25134;-64
2024/04/06 01:17:51;;;;;;;8.38;3.72;;;;;;;;;;5061760;28;25129;-63
2024/04/06 01:20:17;;;;;;;8.10;4.13;;;;;;;;;;5059631;28;25074;-66
2024/04/06 01:22:43;;;;;;;9.50;4.25;;;;;;;;;;5055754;28;25109;-62
2024/04/06 01:25:09;;;;;;;6.90;3.88;;;;;;;;;;5066460;28;25071;-64
2024/04/06 01:27:35;;;;;;;11.13;4.75;;;;;;;;;;5056716;28;25076;-62
2024/04/06 01:30:01;;;;;;;8.55;4.50;;;;;;;;;;5061219;28;25062;-65
2024/04/06 01:32:27;;;;;;;8.25;5.38;;;;;;;;;;5054259;28;25161;-63
2024/04/06 01:34:53;;;;;;;6.85;4.57;;;;;;;;;;5061514;28;25062;-64
2024/04/06 01:37:19;;;;;;;10.18;4.47;;;;;;;;;;5055713;28;25084;-65
2024/04/06 01:39:45;;;;;;;9.82;4.80;;;;;;;;;;5066191;28;25085;-62
2024/04/06 01:42:11;;;;;;;8.07;4.40;;;;;;;;;;5083657;28;25141;-61
2024/04/06 01:44:37;;;;;;;7.90;4.30;;;;;;;;;;5084277;28;25049;-65
2024/04/06 01:47:03;;;;;;;7.10;4.55;;;;;;;;;;5089755;28;25089;-64
2024/04/06 01:49:29;;;;;;;12.43;5.00;;;;;;;;;;5109114;28;25055;-62
2024/04/06 01:51:55;;;;;;;12.98;5.40;;;;;;;;;;5101668;28;25101;-67
2024/04/06 01:54:21;;;;;;;8.75;4.70;;;;;;;;;;5090753;28;25065;-67
2024/04/06 01:56:47;;;;;;;11.57;5.15;;;;;;;;;;5090871;28;25119;-64
2024/04/06 01:59:13;;;;;;;9.43;5.88;;;;;;;;;;5085240;28;25075;-66
2024/04/06 02:01:39;;;;;;;7.80;4.63;;;;;;;;;;5081954;28;25100;-63
2024/04/06 02:04:05;;;;;;;9.55;5.05;;;;;;;;;;5073047;28;25046;-64
2024/04/06 02:06:31;;;;;;;7.60;4.50;;;;;;;;;;5082285;28;25115;-64
2024/04/06 02:08:57;;;;;;;9.20;4.25;;;;;;;;;;5079175;28;25066;-61
2024/04/06 02:11:23;;;;;;;7.05;4.20;;;;;;;;;;5065920;28;25087;-65
2024/04/06 02:13:49;;;;;;;8.10;4.25;;;;;;;;;;5094055;28;25073;-61
2024/04/06 02:16:16;;;;;;;7.50;4.60;;;;;;;;;;5083244;28;24898;-63
2024/04/06 02:18:43;;;;;;;8.68;4.70;;;;;;;;;;5079888;28;25115;-63
2024/04/06 02:21:10;;;;;;;6.85;4.07;;;;;;;;;;5077510;28;25065;-64
2024/04/06 02:23:36;;;;;;;5.50;4.40;;;;;;;;;;5077829;28;25060;-63
2024/04/06 02:26:02;;;;;;;8.93;4.07;;;;;;;;;;5074437;28;25108;-62
2024/04/06 02:28:28;;;;;;;8.52;3.90;;;;;;;;;;5081179;28;25071;-64
2024/04/06 02:30:56;;;;;;;7.35;4.10;;;;;;;;;;5077143;28;25061;-63
2024/04/06 02:33:22;;;;;;;10.23;4.40;;;;;;;;;;5084134;28;25159;-65
2024/04/06 02:35:48;;;;;;;5.28;3.60;;;;;;;;;;5079464;28;25073;-65
2024/04/06 02:38:14;;;;;;;8.65;3.85;;;;;;;;;;5083072;28;25127;-64
2024/04/06 02:40:40;;;;;;;9.38;3.65;;;;;;;;;;5084124;28;25147;-63
2024/04/06 02:43:06;;;;;;;5.55;3.60;;;;;;;;;;5065372;28;25152;-61
2024/04/06 02:45:32;;;;;;;8.35;4.13;;;;;;;;;;5084372;28;25051;-63
2024/04/06 02:47:58;;;;;;;8.88;4.40;;;;;;;;;;5086930;28;25066;-64
2024/04/06 02:50:27;;;;;;;6.68;4.03;;;;;;;;;;5083942;28;25059;-64
2024/04/06 02:52:53;;;;;;;7.45;3.75;;;;;;;;;;5078142;28;25085;-63
2024/04/06 02:55:19;;;;;;;6.28;3.90;;;;;;;;;;5083088;28;25064;-62
2024/04/06 02:57:45;;;;;;;9.02;4.55;;;;;;;;;;5079316;28;25048;-62
2024/04/06 03:00:12;;;;;;;7.05;3.92;;;;;;;;;;5075255;28;25157;-63
2024/04/06 03:02:38;;;;;;;6.97;4.28;;;;;;;;;;5073739;28;25077;-65
2024/04/06 03:05:04;;;;;;;8.57;4.30;;;;;;;;;;5080142;28;25086;-64
2024/04/06 03:07:31;;;;;;;9.65;4.57;;;;;;;;;;5079369;28;25125;-63
2024/04/06 03:09:58;;;;;;;6.25;3.65;;;;;;;;;;5077621;28;25130;-66
2024/04/06 03:12:24;;;;;;;7.55;3.55;;;;;;;;;;5077082;28;25052;-64
2024/04/06 03:14:50;;;;;;;7.55;3.63;;;;;;;;;;5082310;28;25052;-63
2024/04/06 03:17:16;;;;;;;6.20;3.58;;;;;;;;;;5074712;28;25082;-64
2024/04/06 03:19:41;;;;;;;5.90;4.20;;;;;;;;;;5078409;28;25104;-65
2024/04/06 03:22:07;;;;;;;8.27;4.15;;;;;;;;;;5088541;28;25061;-63
2024/04/06 03:24:34;;;;;;;7.57;3.63;;;;;;;;;;5080261;28;25073;-63
2024/04/06 03:26:59;;;;;;;5.82;3.75;;;;;;;;;;5061017;28;25045;-63
2024/04/06 03:29:28;;;;;;;6.03;3.92;;;;;;;;;;5085592;28;25148;-64
2024/04/06 03:31:54;;;;;;;6.95;3.53;;;;;;;;;;5089798;28;25056;-64
2024/04/06 03:34:20;;;;;;;8.57;3.97;;;;;;;;;;5062242;28;25085;-64
2024/04/06 03:36:47;;;;;;;6.32;4.00;;;;;;;;;;5080931;28;25155;-65
2024/04/06 03:39:14;;;;;;;7.38;4.15;;;;;;;;;;5087839;28;25067;-63
2024/04/06 03:41:40;;;;;;;6.72;4.15;;;;;;;;;;5073024;28;25061;-63
2024/04/06 03:44:06;;;;;;;6.60;3.50;;;;;;;;;;5063751;28;25061;-63
2024/04/06 03:46:32;;;;;;;8.10;3.75;;;;;;;;;;5057871;28;25065;-64
2024/04/06 03:48:58;;;;;;;8.35;4.10;;;;;;;;;;5062412;28;25077;-64
2024/04/06 03:51:24;;;;;;;5.80;3.88;;;;;;;;;;5069949;28;25059;-65
2024/04/06 03:53:51;;;;;;;7.13;3.85;;;;;;;;;;5067524;28;25056;-64
2024/04/06 03:56:17;;;;;;;8.73;4.60;;;;;;;;;;5069616;28;25120;-64
2024/04/06 03:58:43;;;;;;;7.70;4.25;;;;;;;;;;5071064;28;25200;-63
2024/04/06 04:01:09;;;;;;;6.28;4.00;;;;;;;;;;5069226;28;25068;-64
2024/04/06 04:03:37;;;;;;;9.38;4.28;;;;;;;;;;5074463;28;25051;-66
2024/04/06 04:06:04;;;;;;;8.45;3.72;;;;;;;;;;5071375;28;25160;-67
2024/04/06 04:08:30;;;;;;;7.25;4.05;;;;;;;;;;5074625;28;25077;-70
2024/04/06 04:10:59;;;;;;;6.18;3.60;;;;;;;;;;5064511;28;25134;-67
2024/04/06 04:13:28;;;;;;;7.07;3.80;;;;;;;;;;5079417;28;25073;-67
2024/04/06 04:15:54;;;;;;;5.63;3.80;;;;;;;;;;5081558;28;25138;-67
2024/04/06 04:18:20;;;;;;;6.07;4.07;;;;;;;;;;5079545;28;25052;-69
2024/04/06 04:20:46;;;;;;;7.22;3.58;;;;;;;;;;5076373;28;25108;-68
2024/04/06 04:23:12;;;;;;;10.32;4.57;;;;;;;;;;5076785;28;25134;-67
2024/04/06 04:25:39;;;;;;;8.27;4.20;;;;;;;;;;5082802;28;25053;-69
2024/04/06 04:28:05;;;;;;;9.27;4.18;;;;;;;;;;5068279;28;25084;-68
2024/04/06 04:30:31;;;;;;;8.20;4.10;;;;;;;;;;5074046;28;25105;-68
2024/04/06 04:32:57;;;;;;;9.13;3.80;;;;;;;;;;5072692;28;25121;-69
2024/04/06 04:35:23;;;;;;;11.73;4.60;;;;;;;;;;5069147;28;25070;-67
2024/04/06 04:37:49;;;;;;;9.13;4.05;;;;;;;;;;5060540;28;25060;-67
2024/04/06 04:40:15;;;;;;;6.68;4.13;;;;;;;;;;5078259;28;25092;-66
2024/04/06 04:42:41;;;;;;;8.80;4.07;;;;;;;;;;5090008;28;25067;-69
2024/04/06 04:45:07;;;;;;;9.13;4.20;;;;;;;;;;5082722;28;25082;-70
2024/04/06 04:47:33;;;;;;;9.98;4.80;;;;;;;;;;5091632;28;25055;-69
2024/04/06 04:49:59;;;;;;;11.77;4.30;;;;;;;;;;5085832;28;25155;-70
2024/04/06 04:52:28;;;;;;;9.73;5.03;;;;;;;;;;5071609;28;25072;-66
2024/04/06 04:54:54;;;;;;;9.25;4.28;;;;;;;;;;5064675;28;25056;-66
2024/04/06 04:57:20;;;;;;;6.18;4.18;;;;;;;;;;5068165;28;25134;-68
2024/04/06 04:59:47;;;;;;;9.70;4.10;;;;;;;;;;5054833;28;25056;-68
2024/04/06 05:02:13;;;;;;;6.47;3.58;;;;;;;;;;5086414;28;25075;-67
2024/04/06 05:04:39;;;;;;;11.00;4.35;;;;;;;;;;5085013;28;25110;-68
2024/04/06 05:07:05;;;;;;;9.43;4.30;;;;;;;;;;5087762;28;25076;-67
2024/04/06 05:09:31;;;;;;;8.07;4.85;;;;;;;;;;5084338;28;25087;-71
2024/04/06 05:11:57;;;;;;;6.95;4.40;;;;;;;;;;5063397;28;25123;-67
2024/04/06 05:14:23;;;;;;;7.68;4.68;;;;;;;;;;5085237;28;25057;-67
2024/04/06 05:16:50;;;;;;;8.70;4.88;;;;;;;;;;5089309;28;25070;-70
2024/04/06 05:19:16;;;;;;;9.18;4.45;;;;;;;;;;5085039;28;25081;-66
2024/04/06 05:21:42;;;;;;;9.07;4.85;;;;;;;;;;5088522;28;25129;-68
2024/04/06 05:24:08;;;;;;;9.18;5.00;;;;;;;;;;5090572;28;25126;-68
2024/04/06 05:26:34;;;;;;;7.43;4.43;;;;;;;;;;5085388;28;25269;-70
2024/04/06 05:29:00;;;;;;;7.78;4.35;;;;;;;;;;5086885;28;25066;-68
2024/04/06 05:31:27;;;;;;;9.25;4.20;;;;;;;;;;5084142;28;25076;-68
2024/04/06 05:33:53;;;;;;;7.47;4.47;;;;;;;;;;5092023;28;25128;-68
2024/04/06 05:36:19;;;;;;;9.18;5.78;;;;;;;;;;5072101;28;25070;-71
2024/04/06 05:38:45;;;;;;;7.82;4.80;;;;;;;;;;5063171;28;25066;-70
2024/04/06 05:41:11;;;;;;;7.82;4.70;;;;;;;;;;5080943;28;25079;-68
2024/04/06 05:43:37;;;;;;;9.23;5.55;;;;;;;;;;5062885;28;25141;-68
2024/04/06 05:46:04;;;;;;;9.43;5.30;;;;;;;;;;5057592;28;25081;-68
2024/04/06 05:48:31;;;;;;;7.68;4.63;;;;;;;;;;5066521;28;25099;-68
2024/04/06 05:51:00;;;;;;;8.13;5.18;;;;;;;;;;5066688;28;25057;-67
2024/04/06 05:53:26;;;;;;;10.63;5.10;;;;;;;;;;5058521;28;25065;-67
2024/04/06 05:55:52;;;;;;;6.35;5.30;;;;;;;;;;5055731;28;25108;-69
2024/04/06 05:58:18;;;;;;;8.93;5.03;;;;;;;;;;5063100;28;25078;-67
2024/04/06 06:00:44;;;;;;;11.02;4.53;;;;;;;;;;5058960;28;25154;-68
2024/04/06 06:03:10;;;;;;;10.07;5.15;;;;;;;;;;5066013;28;25088;-68
2024/04/06 06:05:36;;;;;;;10.30;4.30;;;;;;;;;;5062383;28;25058;-68
2024/04/06 06:08:02;;;;;;;7.10;3.60;;;;;;;;;;5053996;28;25155;-67
2024/04/06 06:10:28;;;;;;;7.50;3.60;;;;;;;;;;5057921;28;25062;-67
2024/04/06 06:12:54;;;;;;;6.97;4.03;;;;;;;;;;5065313;28;25124;-67
2024/04/06 06:15:20;;;;;;;9.65;3.90;;;;;;;;;;5067988;28;25074;-67
2024/04/06 06:17:46;;;;;;;8.82;3.63;;;;;;;;;;5063807;28;25079;-65
2024/04/06 06:20:12;;;;;;;6.82;3.70;;;;;;;;;;5061491;28;25062;-65
2024/04/06 06:22:38;;;;;;;6.32;3.20;;;;;;;;;;5064599;28;25074;-65
2024/04/06 06:25:04;;;;;;;6.45;3.70;;;;;;;;;;5071748;28;25065;-64
2024/04/06 06:27:31;;;;;;;5.82;3.40;;;;;;;;;;5062425;28;25045;-65
2024/04/06 06:29:57;;;;;;;5.70;3.38;;;;;;;;;;5066480;28;25088;-65
2024/04/06 06:32:23;;;;;;;6.13;3.50;;;;;;;;;;5083519;28;25077;-64
2024/04/06 06:34:49;;;;;;;9.55;3.67;;;;;;;;;;5076174;28;25107;-68
2024/04/06 06:37:15;;;;;;;5.32;3.67;;;;;;;;;;5079508;28;25058;-65
2024/04/06 06:39:41;;;;;;;4.93;3.10;;;;;;;;;;5079252;28;25057;-65
2024/04/06 06:42:12;;;;;;;6.07;3.17;;;;;;;;;;5068760;28;25180;-63
2024/04/06 06:44:38;;;;;;;5.10;3.20;;;;;;;;;;5067766;28;25144;-64
2024/04/06 06:47:05;;;;;;;7.80;3.20;;;;;;;;;;5065189;28;25070;-65
2024/04/06 06:49:31;;;;;;;8.15;2.60;;;;;;;;;;5059217;28;25058;-66
2024/04/06 06:51:58;;;;;;;8.93;3.15;;;;;;;;;;5068046;28;25126;-65
2024/04/06 06:54:26;;;;;;;3.88;3.17;;;;;;;;;;5068317;28;25067;-65
2024/04/06 06:56:51;;;;;;;5.25;3.38;;;;;;;;;;5070255;28;25101;-65
2024/04/06 06:59:17;;;;;;;6.15;3.40;;;;;;;;;;5064651;28;25118;-64
2024/04/06 07:01:43;;;;;;;5.78;3.08;;;;;;;;;;5069422;28;25126;-64
2024/04/06 07:04:09;;;;;;;8.75;3.03;;;;;;;;;;5068074;28;25081;-64
2024/04/06 07:06:35;;;;;;;3.67;2.58;;;;;;;;;;5070289;28;25068;-64
2024/04/06 07:09:03;;;;;;;5.75;3.10;;;;;;;;;;5069360;28;25061;-64
2024/04/06 07:11:29;;;;;;;4.30;2.70;;;;;;;;;;5061751;28;25054;-64
2024/04/06 07:13:55;;;;;;;4.85;2.65;;;;;;;;;;5068183;28;25066;-65
2024/04/06 07:16:21;;;;;;;7.30;3.00;;;;;;;;;;5068171;28;25077;-64
2024/04/06 07:18:47;;;;;;;3.80;2.35;;;;;;;;;;5065981;28;25056;-64
2024/04/06 07:21:16;;;;;;;4.95;2.90;;;;;;;;;;5067599;28;25072;-64
2024/04/06 07:23:42;;;;;;;8.32;2.38;;;;;;;;;;5067255;28;25122;-64
2024/04/06 07:26:08;;;;;;;5.82;2.33;;;;;;;;;;5065347;28;25061;-65
2024/04/06 07:28:38;;;;;;;5.82;3.03;;;;;;;;;;5066107;28;25113;-65
2024/04/06 07:31:04;;;;;;;4.47;2.33;;;;;;;;;;5061163;28;25137;-64
2024/04/06 07:33:31;;;;;;;3.25;2.20;;;;;;;;;;5060832;28;25062;-65
2024/04/06 07:35:57;;;;;;;8.05;2.33;;;;;;;;;;5063446;28;25076;-65
2024/04/06 07:38:25;;;;;;;8.85;2.92;;;;;;;;;;5070669;28;25054;-65
2024/04/06 07:40:58;;;;;;;6.97;3.13;;;;;;;;;;5061301;28;25097;-66
2024/04/06 07:43:24;;;;;;;3.08;2.50;;;;;;;;;;5058397;28;25093;-65
2024/04/06 07:45:50;;;;;;;5.03;2.85;;;;;;;;;;5064020;28;25132;-65
2024/04/06 07:48:16;;;;;;;6.00;2.63;;;;;;;;;;5062019;28;25057;-65
2024/04/06 07:50:42;;;;;;;9.18;2.38;;;;;;;;;;5061933;28;25068;-64
2024/04/06 07:53:08;;;;;;;6.78;2.45;;;;;;;;;;5056357;28;25058;-65
2024/04/06 07:55:34;;;;;;;4.80;2.30;;;;;;;;;;5059240;28;25135;-66
2024/04/06 07:58:00;;;;;;;4.13;2.72;;;;;;;;;;5066438;28;25091;-65
2024/04/06 08:00:26;;;;;;;4.95;2.20;;;;;;;;;;5059801;28;25079;-63
2024/04/06 08:02:52;;;;;;;6.22;2.75;;;;;;;;;;5057580;28;25134;-65
2024/04/06 08:05:18;;;;;;;3.10;2.20;;;;;;;;;;5068282;28;25050;-65
2024/04/06 08:07:44;;;;;;;5.20;2.40;;;;;;;;;;5059468;28;25115;-63
2024/04/06 08:10:28;;;;;;;4.38;2.50;;;;;;;;;;5062245;28;25078;-63
2024/04/06 08:12:55;;;;;;;7.75;2.58;;;;;;;;;;5059112;28;25144;-65
2024/04/06 08:15:21;;;;;;;5.22;2.38;;;;;;;;;;5053105;28;25081;-67
2024/04/06 08:17:54;;;;;;;3.10;2.13;;;;;;;;;;5057074;28;25071;-65
2024/04/06 08:20:20;;;;;;;4.38;2.33;;;;;;;;;;5055062;28;25047;-65
2024/04/06 08:22:46;;;;;;;3.75;2.08;;;;;;;;;;5063661;28;25077;-65
2024/04/06 08:25:12;;;;;;;6.60;2.05;;;;;;;;;;5060353;28;25093;-64
2024/04/06 08:27:39;;;;;;;4.50;1.85;;;;;;;;;;5070212;28;25059;-65
2024/04/06 08:30:07;;;;;;;3.53;1.90;;;;;;;;;;5066479;28;25070;-64
2024/04/06 08:32:35;;;;;;;3.53;1.98;;;;;;;;;;5062002;28;25087;-63
2024/04/06 08:35:01;;;;;;;5.18;1.80;;;;;;;;;;5059461;28;25089;-63
2024/04/06 08:37:27;;;;;;;3.58;1.63;;;;;;;;;;5058027;28;25130;-66
2024/04/06 08:39:53;;;;;;;10.07;2.00;;;;;;;;;;5054992;28;25159;-65
2024/04/06 08:42:20;;;;;;;3.75;2.30;;;;;;;;;;5058934;28;25065;-62
2024/04/06 08:44:48;;;;;;;6.45;2.50;;;;;;;;;;5054190;28;25097;-63
2024/04/06 08:47:15;;;;;;;4.63;1.90;;;;;;;;;;5062861;28;25115;-65
2024/04/06 08:49:41;;;;;;;4.85;2.13;;;;;;;;;;5063042;28;25096;-67
2024/04/06 08:52:08;;;;;;;7.03;1.85;;;;;;;;;;5062381;28;25160;-67
2024/04/06 08:54:34;;;;;;;5.30;1.70;;;;;;;;;;5068118;28;25162;-68
2024/04/06 08:57:00;;;;;;;4.32;1.60;;;;;;;;;;5072630;28;25090;-66
2024/04/06 08:59:27;;;;;;;2.97;1.73;;;;;;;;;;5065806;28;25058;-66
2024/04/06 09:01:53;;;;;;;5.45;2.28;;;;;;;;;;5062448;28;25052;-65
2024/04/06 09:04:19;;;;;;;3.47;1.75;;;;;;;;;;5070912;28;25060;-68
2024/04/06 09:06:46;;;;;;;6.00;2.05;;;;;;;;;;5089248;28;25082;-67
2024/04/06 09:09:12;;;;;;;7.70;2.10;;;;;;;;;;5086768;28;25076;-67
2024/04/06 09:11:38;;;;;;;3.80;1.55;;;;;;;;;;5086698;28;25068;-66
2024/04/06 09:14:05;;;;;;;4.78;2.20;;;;;;;;;;5077664;28;25094;-66
2024/04/06 09:16:31;;;;;;;3.42;1.58;;;;;;;;;;5076744;28;25104;-66
2024/04/06 09:18:57;;;;;;;3.17;1.60;;;;;;;;;;5067266;28;25173;-65
2024/04/06 09:21:23;;;;;;;3.78;1.95;;;;;;;;;;5062606;28;25086;-67
2024/04/06 09:23:56;;;;;;;3.80;1.90;;;;;;;;;;5062821;28;25069;-65
2024/04/06 09:26:23;;;;;;;7.47;1.98;;;;;;;;;;5063385;28;25061;-66
2024/04/06 09:28:52;;;;;;;5.43;1.63;;;;;;;;;;5065448;28;25093;-68
2024/04/06 09:31:25;;;;;;;5.82;1.63;;;;;;;;;;5056982;28;25071;-67
2024/04/06 09:33:52;;;;;;;4.25;1.60;;;;;;;;;;5065815;28;25058;-66
2024/04/06 09:36:18;;;;;;;10.18;4.13;;;;;;;;;;5062665;28;25106;-66
2024/04/06 09:38:46;;;;;;;8.10;1.60;;;;;;;;;;5066689;28;25117;-66
2024/04/06 09:41:14;;;;;;;2.67;1.85;;;;;;;;;;5062763;28;25054;-67
2024/04/06 09:43:40;;;;;;;3.22;1.60;;;;;;;;;;5063693;28;25048;-66
2024/04/06 09:46:06;;;;;;;7.05;2.17;;;;;;;;;;5070426;28;25070;-69
2024/04/06 09:48:33;;;;;;;4.82;2.40;;;;;;;;;;5097548;28;25061;-68
2024/04/06 09:51:00;;;;;;;5.57;1.83;;;;;;;;;;5064532;28;25056;-66
2024/04/06 09:53:26;;;;;;;4.90;1.73;;;;;;;;;;5069033;28;25058;-65
2024/04/06 09:55:54;;;;;;;4.50;1.65;;;;;;;;;;5060206;28;25060;-64
2024/04/06 09:58:28;;;;;;;7.60;2.08;;;;;;;;;;5064275;28;25095;-67
2024/04/06 10:00:54;;;;;;;5.63;1.60;;;;;;;;;;5062363;28;25067;-67
2024/04/06 10:03:21;;;;;;;3.83;1.80;;;;;;;;;;5067900;28;25088;-67
2024/04/06 10:05:49;;;;;;;2.67;1.52;;;;;;;;;;5068325;28;25058;-67
2024/04/06 10:08:19;;;;;;;4.78;1.65;;;;;;;;;;5068132;28;25076;-68
2024/04/06 10:10:45;;;;;;;9.20;1.40;;;;;;;;;;5069131;28;25052;-65
2024/04/06 10:13:21;;;;;;;3.83;1.63;;;;;;;;;;5065331;28;25166;-68
2024/04/06 10:15:47;;;;;;;4.07;1.65;;;;;;;;;;5062846;28;25123;-67
2024/04/06 10:18:13;;;;;;;5.20;1.40;;;;;;;;;;5053248;28;25056;-66
2024/04/06 10:20:40;;;;;;;6.18;1.80;;;;;;;;;;5065660;28;25065;-66
2024/04/06 10:23:06;;;;;;;5.57;1.60;;;;;;;;;;5059562;28;25053;-66
2024/04/06 10:25:36;;;;;;;2.67;1.30;;;;;;;;;;5064971;28;25081;-65
2024/04/06 10:28:02;;;;;;;5.05;1.50;;;;;;;;;;5066838;28;25053;-64
2024/04/06 10:30:28;;;;;;;3.80;2.00;;;;;;;;;;5068210;28;25059;-65
2024/04/06 10:32:54;;;;;;;3.80;1.77;;;;;;;;;;5062317;28;25077;-63
2024/04/06 10:35:20;;;;;;;2.00;1.35;;;;;;;;;;5066639;28;25124;-64
2024/04/06 10:37:47;;;;;;;3.10;1.52;;;;;;;;;;5073754;28;25058;-66
2024/04/06 10:40:14;;;;;;;3.53;1.40;;;;;;;;;;5084760;28;25066;-63
2024/04/06 10:42:43;;;;;;;9.10;1.38;;;;;;;;;;5089008;28;25048;-64
2024/04/06 10:45:11;;;;;;;3.13;1.60;;;;;;;;;;5084987;28;25070;-65
2024/04/06 10:47:38;;;;;;;7.03;1.75;;;;;;;;;;5090182;28;25149;-64
2024/04/06 10:50:07;;;;;;;2.67;1.20;;;;;;;;;;5088943;28;25097;-63
2024/04/06 10:52:33;;;;;;;3.78;1.45;;;;;;;;;;5088477;28;25075;-63
2024/04/06 10:55:09;;;;;;;6.15;1.48;;;;;;;;;;5082932;28;25123;-66
2024/04/06 10:57:35;;;;;;;2.53;1.50;;;;;;;;;;5084575;28;25088;-65
2024/04/06 11:00:01;;;;;;;5.43;1.60;;;;;;;;;;5080489;28;25114;-64
2024/04/06 11:02:27;;;;;;;6.38;1.50;;;;;;;;;;5085966;28;25097;-64
2024/04/06 11:04:53;;;;;;;3.55;1.27;;;;;;;;;;5088970;28;25148;-64
2024/04/06 11:07:19;;;;;;;3.70;1.65;;;;;;;;;;5082529;28;25061;-65
2024/04/06 11:09:45;;;;;;;3.88;1.35;;;;;;;;;;5084663;28;25133;-65
2024/04/06 11:12:11;;;;;;;3.22;1.60;;;;;;;;;;5066271;28;25064;-64
2024/04/06 11:14:37;;;;;;;4.50;1.67;;;;;;;;;;5100053;28;25056;-65
2024/04/06 11:17:05;;;;;;;2.75;1.38;;;;;;;;;;5090429;28;25138;-65
2024/04/06 11:19:31;;;;;;;4.30;1.30;;;;;;;;;;5082998;28;25151;-66
2024/04/06 11:22:04;;;;;;;1.77;1.00;;;;;;;;;;5085720;28;25123;-65
2024/04/06 11:24:33;;;;;;;3.67;1.48;;;;;;;;;;5085373;28;25078;-66
2024/04/06 11:27:05;;;;;;;3.72;1.20;;;;;;;;;;5088211;28;25108;-66
2024/04/06 11:29:31;;;;;;;7.10;1.40;;;;;;;;;;5064103;28;25068;-64
2024/04/06 11:31:57;;;;;;;3.78;1.23;;;;;;;;;;5087256;28;25055;-65
2024/04/06 11:34:23;;;;;;;3.05;1.50;;;;;;;;;;5089777;28;25081;-64
2024/04/06 11:36:49;;;;;;;4.70;1.10;;;;;;;;;;5085357;28;25070;-64
2024/04/06 11:39:16;;;;;;;1.95;1.20;;;;;;;;;;5069440;28;25060;-65
2024/04/06 11:41:41;;;;;;;2.30;1.10;;;;;;;;;;5079524;28;25056;-67
2024/04/06 11:44:07;;;;;;;2.55;1.33;;;;;;;;;;5085846;28;25058;-67
2024/04/06 11:46:34;;;;;;;3.25;1.17;;;;;;;;;;5079337;28;25060;-66
2024/04/06 11:49:03;;;;;;;3.65;1.27;;;;;;;;;;5087519;28;25059;-66
2024/04/06 11:51:29;;;;;;;5.80;1.33;;;;;;;;;;5093122;28;25139;-65
2024/04/06 11:53:55;;;;;;;2.88;1.33;;;;;;;;;;5093125;28;25095;-65
2024/04/06 11:56:21;;;;;;;2.90;1.15;;;;;;;;;;5102430;28;25076;-66
2024/04/06 11:58:50;;;;;;;2.70;1.20;;;;;;;;;;5102051;28;25070;-64
2024/04/06 12:01:16;;;;;;;7.35;1.17;;;;;;;;;;5091774;28;25066;-65
2024/04/06 12:03:42;;;;;;;6.03;1.63;;;;;;;;;;5095951;28;25095;-64
2024/04/06 12:06:11;;;;;;;3.13;0.90;;;;;;;;;;5097684;28;25156;-67
2024/04/06 12:08:37;;;;;;;1.70;1.17;;;;;;;;;;5086226;28;25070;-68
2024/04/06 12:11:03;;;;;;;2.80;1.08;;;;;;;;;;5047402;28;25149;-65
2024/04/06 12:13:29;;;;;;;4.57;1.38;;;;;;;;;;5088466;28;25106;-65
2024/04/06 12:15:55;;;;;;;1.58;1.00;;;;;;;;;;5085808;28;25113;-69
2024/04/06 12:18:24;;;;;;;6.38;1.35;;;;;;;;;;5082574;28;25086;-64
2024/04/06 12:20:50;;;;;;;3.97;0.90;;;;;;;;;;5065774;28;25086;-65
2024/04/06 12:23:16;;;;;;;2.40;1.10;;;;;;;;;;5083121;28;25153;-64
2024/04/06 12:25:42;;;;;;;2.42;1.20;;;;;;;;;;5084075;28;25115;-65
2024/04/06 12:28:08;;;;;;;6.57;1.30;;;;;;;;;;5088441;28;25135;-66
2024/04/06 12:30:34;;;;;;;5.22;1.90;;;;;;;;;;5080176;28;25067;-66
2024/04/06 12:33:00;;;;;;;6.28;1.10;;;;;;;;;;5088640;28;25071;-66
2024/04/06 12:35:26;;;;;;;3.35;1.45;;;;;;;;;;5078761;28;25137;-64
2024/04/06 12:37:54;;;;;;;2.55;1.20;;;;;;;;;;5085951;28;25066;-65
2024/04/06 12:40:20;;;;;;;6.80;1.92;;;;;;;;;;5072878;28;25054;-66
2024/04/06 12:42:46;;;;;;;9.57;1.30;;;;;;;;;;5059382;28;25052;-66
2024/04/06 12:45:12;;;;;;;2.08;1.15;;;;;;;;;;5062373;28;25103;-65
2024/04/06 12:47:39;;;;;;;4.85;1.27;;;;;;;;;;5065343;28;25150;-65
2024/04/06 12:50:05;;;;;;;2.90;1.25;;;;;;;;;;5061516;28;25136;-66
2024/04/06 12:52:32;;;;;;;3.25;1.20;;;;;;;;;;5058592;28;25113;-66
2024/04/06 12:54:58;;;;;;;1.55;1.02;;;;;;;;;;5059412;28;25063;-66
2024/04/06 12:57:39;;;;;;;7.63;1.73;;;;;;;;;;5064378;28;25081;-65
2024/04/06 13:00:06;;;;;;;5.60;1.58;;;;;;;;;;5065799;28;25080;-63
2024/04/06 13:02:35;;;;;;;2.53;1.30;;;;;;;;;;5057538;28;25146;-65
2024/04/06 13:05:01;;;;;;;2.28;1.35;;;;;;;;;;5060591;28;25064;-64
2024/04/06 13:07:28;;;;;;;3.22;1.42;;;;;;;;;;5063682;28;25286;-64
2024/04/06 13:09:54;;;;;;;2.17;1.13;;;;;;;;;;5065655;28;25063;-66
2024/04/06 13:12:29;;;;;;;13.20;2.00;;;;;;;;;;5042313;28;25050;-65
2024/04/06 13:14:55;;;;;;;3.45;1.42;;;;;;;;;;5060451;28;25054;-65
2024/04/06 13:17:20;;;;;;;2.35;1.15;;;;;;;;;;5059320;28;25146;-65
2024/04/06 13:19:46;;;;;;;3.10;1.20;;;;;;;;;;5045817;28;25067;-67
2024/04/06 13:22:13;;;;;;;3.08;1.42;;;;;;;;;;5056229;28;25094;-66
2024/04/06 13:24:38;;;;;;;3.70;1.60;;;;;;;;;;5062995;28;25066;-66
2024/04/06 13:27:04;;;;;;;6.70;1.88;;;;;;;;;;5061162;28;25104;-66
2024/04/06 13:29:31;;;;;;;10.20;1.30;;;;;;;;;;5057159;28;25055;-65
2024/04/06 13:31:57;;;;;;;9.23;2.08;;;;;;;;;;5063379;28;25099;-64
2024/04/06 13:34:23;;;;;;;3.17;1.30;;;;;;;;;;5068025;28;25090;-65
2024/04/06 13:36:49;;;;;;;5.03;1.80;;;;;;;;;;5062617;28;25099;-65
2024/04/06 13:39:15;;;;;;;5.07;1.50;;;;;;;;;;5058567;28;25071;-65
2024/04/06 13:41:41;;;;;;;2.58;1.30;;;;;;;;;;5077626;28;25144;-65
2024/04/06 13:44:07;;;;;;;3.42;1.40;;;;;;;;;;5059195;28;25064;-65
2024/04/06 13:46:33;;;;;;;6.40;1.40;;;;;;;;;;5062209;28;25065;-66
2024/04/06 13:49:02;;;;;;;3.53;1.25;;;;;;;;;;5061837;28;25063;-64
2024/04/06 13:51:28;;;;;;;5.15;1.95;;;;;;;;;;5071619;28;25072;-65
2024/04/06 13:53:54;;;;;;;5.05;1.60;;;;;;;;;;5063615;28;25080;-65
2024/04/06 13:56:20;;;;;;;5.40;1.80;;;;;;;;;;5064422;28;25132;-66
2024/04/06 13:58:49;;;;;;;4.55;1.42;;;;;;;;;;5053388;28;25086;-66
2024/04/06 14:01:15;;;;;;;5.88;1.80;;;;;;;;;;5072274;28;25072;-64
2024/04/06 14:03:41;;;;;;;6.00;1.50;;;;;;;;;;5066074;28;25071;-68
2024/04/06 14:06:07;;;;;;;7.47;1.63;;;;;;;;;;5064006;28;25044;-66
2024/04/06 14:08:33;;;;;;;5.95;1.80;;;;;;;;;;5068378;28;25129;-67
2024/04/06 14:11:03;;;;;;;6.78;1.88;;;;;;;;;;5063071;28;25129;-66
2024/04/06 14:13:33;;;;;;;4.53;1.60;;;;;;;;;;5066367;28;25073;-65
2024/04/06 14:16:00;;;;;;;8.35;1.33;;;;;;;;;;5078393;28;25069;-66
2024/04/06 14:18:26;;;;;;;7.63;1.73;;;;;;;;;;5072905;28;25154;-64
2024/04/06 14:20:53;;;;;;;4.85;1.60;;;;;;;;;;5073259;28;25057;-66
2024/04/06 14:23:19;;;;;;;3.13;1.58;;;;;;;;;;5067692;28;25129;-67
2024/04/06 14:25:46;;;;;;;5.55;2.05;;;;;;;;;;5064824;28;25130;-66
2024/04/06 14:28:12;;;;;;;6.70;1.35;;;;;;;;;;5063161;28;25064;-64
2024/04/06 14:30:38;;;;;;;8.15;1.67;;;;;;;;;;5067234;28;25076;-67
2024/04/06 14:33:04;;;;;;;7.03;1.75;;;;;;;;;;5070675;28;25180;-66
2024/04/06 14:35:30;;;;;;;5.18;1.70;;;;;;;;;;5063305;28;25061;-66
2024/04/06 14:37:56;;;;;;;5.78;1.58;;;;;;;;;;5061282;28;25130;-64
2024/04/06 14:40:23;;;;;;;6.00;1.83;;;;;;;;;;5064868;28;25059;-66